Time;durP1;ratioP1;P1;durP2;ratioP2;P2;SDS_P1;SDS_P2;PMS_P1;PMS_P2;Temp;Humidity;BMP_temperature;BMP_pressure;BME280_temperature;BME280_humidity;BME280_pressure;Samples;Min_cycle;Max_cycle;Signal;HPM_P1;HPM_P2
2022/02/01 00:01:41;;;;;;;14.50;5.03;;;;;;;17.85;44.97;102207.28;4994794;28;20125;-75
2022/02/01 00:04:15;;;;;;;18.17;5.05;;;;;;;17.61;45.44;102202.22;5014064;28;20029;-76
2022/02/01 00:06:55;;;;;;;17.15;4.53;;;;;;;17.56;45.50;102212.63;5014128;28;20030;-75
2022/02/01 00:36:16;;;;;;;19.80;4.63;;;;;;;17.59;46.21;102218.31;5012657;28;20022;-75
2022/02/01 00:38:54;;;;;;;17.05;3.70;;;;;;;17.61;46.54;102220.78;5013448;28;20026;-75
2022/02/01 00:41:26;;;;;;;20.52;4.88;;;;;;;17.96;45.71;102224.34;5013504;28;20030;-75
2022/02/01 00:43:52;;;;;;;24.77;4.65;;;;;;;17.64;46.45;102229.22;5013356;28;20435;-75
2022/02/01 00:46:17;;;;;;;14.55;3.70;;;;;;;17.79;46.45;102218.84;5013639;28;20026;-75
2022/02/01 00:48:43;;;;;;;13.43;3.17;;;;;;;17.25;48.00;102234.88;5013363;28;20629;-75
2022/02/01 00:51:11;;;;;;;19.38;6.05;;;;;;;17.45;47.51;102242.50;5013205;28;20066;-75
2022/02/01 00:53:40;;;;;;;18.98;5.18;;;;;;;17.77;46.91;102234.94;5013258;28;20044;-76
2022/02/01 00:56:05;;;;;;;13.77;3.83;;;;;;;17.97;46.46;102210.19;5013247;28;20466;-75
2022/02/01 00:58:31;;;;;;;17.67;4.72;;;;;;;18.02;46.02;102239.63;5011955;28;20053;-75
2022/02/01 01:00:56;;;;;;;13.82;3.83;;;;;;;17.64;47.14;102236.69;5013169;28;20080;-75
2022/02/01 01:03:23;;;;;;;22.30;5.32;;;;;;;18.11;46.09;102225.78;5011884;28;20515;-75
2022/02/01 01:05:49;;;;;;;14.07;4.20;;;;;;;17.63;47.58;102224.00;5013071;28;20079;-75
2022/02/01 01:08:14;;;;;;;23.88;4.40;;;;;;;17.87;47.28;102229.88;5013043;28;20034;-75
2022/02/01 01:10:41;;;;;;;18.65;5.38;;;;;;;17.55;48.04;102225.63;5012960;28;20026;-75
2022/02/01 01:16:42;;;;;;;17.80;4.45;;;;;;;17.64;48.16;102244.97;5013046;28;20433;-75
2022/02/01 01:19:02;;;;;;;16.00;4.57;;;;;;;18.10;46.78;102262.88;5009774;28;20041;-75
2022/02/01 01:53:44;;;;;;;21.85;4.10;;;;;;;17.92;48.36;102267.63;5016681;28;20419;-75
2022/02/01 01:56:10;;;;;;;20.55;4.45;;;;;;;18.26;47.36;102261.22;5016780;28;20025;-75
2022/02/01 01:58:36;;;;;;;23.02;5.47;;;;;;;18.41;47.04;102259.91;5016571;28;20030;-75
2022/02/01 02:01:11;;;;;;;16.20;4.43;;;;;;;18.39;47.14;102273.25;5016326;28;20037;-75
2022/02/01 02:03:47;;;;;;;17.90;4.10;;;;;;;18.57;46.68;102253.50;5016498;28;20034;-75
2022/02/01 02:06:16;;;;;;;14.88;4.18;;;;;;;18.58;46.57;102262.63;5016408;28;20547;-75
2022/02/01 02:08:46;;;;;;;16.30;3.90;;;;;;;18.32;47.43;102256.34;5016341;28;20026;-75
2022/02/01 02:11:18;;;;;;;9.73;3.15;;;;;;;18.32;47.35;102248.84;5016474;28;20034;-75
2022/02/01 02:16:34;;;;;;;14.37;4.10;;;;;;;18.56;46.59;102260.19;5016336;28;20081;-75
2022/02/01 02:18:59;;;;;;;8.68;3.67;;;;;;;18.49;46.88;102270.13;5016193;28;20049;-75
2022/02/01 02:21:25;;;;;;;11.40;3.33;;;;;;;18.10;48.04;102274.75;5016051;28;20058;-75
2022/02/01 02:23:51;;;;;;;11.15;2.65;;;;;;;18.37;47.44;102279.13;5016354;28;20485;-76
2022/02/01 02:26:17;;;;;;;10.23;2.33;;;;;;;18.43;47.27;102279.75;5015957;28;20547;-75
2022/02/01 02:28:45;;;;;;;10.73;2.35;;;;;;;18.44;47.31;102273.06;5015757;28;20054;-75
2022/02/01 02:31:11;;;;;;;15.48;3.35;;;;;;;18.79;46.36;102277.38;5015897;28;20026;-75
2022/02/01 02:33:37;;;;;;;11.00;3.28;;;;;;;18.55;46.99;102268.81;5015848;28;20084;-76
2022/02/01 02:36:13;;;;;;;8.10;3.05;;;;;;;18.70;46.57;102257.25;5015779;28;20034;-75
2022/02/01 02:38:49;;;;;;;11.13;3.53;;;;;;;18.58;47.05;102260.66;5015835;28;20017;-75
2022/02/01 02:41:33;;;;;;;7.72;2.17;;;;;;;17.96;48.18;102261.09;5015809;28;20030;-75
2022/02/01 02:46:47;;;;;;;11.88;2.88;;;;;;;18.65;46.78;102271.22;5015981;28;20073;-75
2022/02/01 02:49:21;;;;;;;10.55;2.75;;;;;;;18.41;47.47;102266.25;5015848;28;20033;-75
2022/02/01 02:51:47;;;;;;;11.48;2.90;;;;;;;18.47;47.31;102275.19;5015519;28;20038;-76
2022/02/01 02:54:24;;;;;;;9.50;2.75;;;;;;;18.56;47.20;102268.47;5015543;28;20045;-75
2022/02/01 02:56:53;;;;;;;7.28;2.42;;;;;;;18.71;46.68;102258.03;5015514;28;20030;-75
2022/02/01 02:59:21;;;;;;;9.57;2.45;;;;;;;18.84;46.13;102243.19;5014285;28;20076;-75
2022/02/01 03:01:48;;;;;;;8.88;3.78;;;;;;;18.87;46.34;102241.69;5015452;28;20034;-75
2022/02/01 03:04:18;;;;;;;6.68;2.55;;;;;;;18.95;46.06;102241.66;5015319;28;20080;-75
2022/02/01 03:06:43;;;;;;;;;;;;;;;18.66;46.82;102220.28;5015630;28;20116;-75
2022/02/01 03:09:10;;;;;;;9.00;2.72;;;;;;;18.87;46.40;102211.22;5015318;28;20008;-75
2022/02/01 03:11:37;;;;;;;10.77;3.15;;;;;;;18.76;46.33;102216.34;5015440;28;20383;-75
2022/02/01 03:14:12;;;;;;;5.95;2.28;;;;;;;18.62;46.87;102199.91;5013884;28;20037;-76
2022/02/01 03:22:14;;;;;;;5.22;2.00;;;;;;;18.82;46.50;102182.59;5015017;28;20033;-75
2022/02/01 03:24:39;;;;;;;5.72;2.17;;;;;;;18.95;45.79;102171.59;5014955;28;20028;-75
2022/02/01 03:27:05;;;;;;;6.50;1.83;;;;;;;18.66;47.24;102181.50;5014851;28;20072;-75
2022/02/01 03:29:31;;;;;;;7.88;1.75;;;;;;;18.72;46.74;102182.16;5014694;28;20046;-75
2022/02/01 03:31:56;;;;;;;11.07;2.67;;;;;;;18.66;46.98;102177.94;5014719;28;20365;-75
2022/02/01 03:34:22;;;;;;;8.38;1.90;;;;;;;18.90;46.41;102180.13;5014717;28;20065;-76
2022/02/01 03:36:48;;;;;;;5.20;1.90;;;;;;;18.57;47.10;102178.75;5014730;28;20030;-76
2022/02/01 03:39:15;;;;;;;6.55;1.92;;;;;;;18.83;46.58;102167.59;5014640;28;20034;-75
2022/02/01 03:41:41;;;;;;;7.00;1.80;;;;;;;18.84;46.63;102172.00;5014653;28;20072;-75
2022/02/01 03:44:06;;;;;;;4.45;1.73;;;;;;;18.99;46.36;102164.25;5014635;28;20061;-75
2022/02/01 03:46:32;;;;;;;4.55;1.40;;;;;;;18.51;47.10;102168.19;5014566;28;20022;-75
2022/02/01 03:48:58;;;;;;;6.80;1.92;;;;;;;18.70;47.01;102165.88;5014451;28;20149;-75
2022/02/01 03:51:24;;;;;;;9.45;3.53;;;;;;;19.02;46.40;102166.34;5014615;28;20029;-75
2022/02/01 03:53:49;;;;;;;4.95;1.27;;;;;;;18.73;47.02;102148.56;5014400;28;20477;-75
2022/02/01 03:56:16;;;;;;;5.95;1.40;;;;;;;18.79;46.86;102132.59;5014395;28;20030;-75
2022/02/01 03:58:42;;;;;;;5.32;1.45;;;;;;;18.74;47.10;102143.84;5014310;28;20057;-75
2022/02/01 04:01:07;;;;;;;7.00;1.90;;;;;;;18.81;46.97;102136.63;5014217;28;20116;-75
2022/02/01 04:03:33;;;;;;;9.63;1.80;;;;;;;18.66;47.24;102141.94;5014195;28;20041;-75
2022/02/01 04:05:59;;;;;;;3.85;1.20;;;;;;;18.26;48.40;102145.84;5014125;28;20030;-75
2022/02/01 04:08:24;;;;;;;8.05;2.38;;;;;;;18.87;46.81;102140.03;5014106;28;20057;-76
2022/02/01 04:10:51;;;;;;;3.20;1.75;;;;;;;18.66;47.50;102145.53;5012551;28;20049;-75
2022/02/01 04:13:19;;;;;;;5.20;1.77;;;;;;;18.88;47.05;102144.41;5014262;28;20111;-75
2022/02/01 04:15:46;;;;;;;9.93;1.90;;;;;;;18.90;46.99;102155.19;5014019;28;20030;-75
2022/02/01 04:18:13;;;;;;;6.20;1.50;;;;;;;18.80;47.31;102153.59;5014219;28;20030;-75
2022/02/01 04:20:39;;;;;;;3.97;1.52;;;;;;;18.48;48.30;102169.69;5014163;28;20026;-75
2022/02/01 04:23:05;;;;;;;7.15;1.52;;;;;;;18.68;47.79;102154.31;5013855;28;20022;-75
2022/02/01 04:25:31;;;;;;;6.60;1.67;;;;;;;19.15;46.68;102156.97;5013817;28;20021;-75
2022/02/01 04:27:57;;;;;;;10.35;1.48;;;;;;;18.66;47.55;102169.63;5013589;28;20473;-76
2022/02/01 04:30:23;;;;;;;10.13;2.88;;;;;;;19.05;46.67;102157.38;5013738;28;20033;-75
2022/02/01 04:32:55;;;;;;;12.52;2.17;;;;;;;18.96;47.05;102162.94;5013717;28;20033;-75
2022/02/01 04:35:27;;;;;;;6.82;1.23;;;;;;;18.95;47.14;102143.91;5013642;28;20030;-76
2022/02/01 04:37:54;;;;;;;8.32;2.00;;;;;;;18.81;47.31;102156.03;5013664;28;20104;-75
2022/02/01 04:40:21;;;;;;;7.07;1.40;;;;;;;18.91;47.26;102154.03;5013544;28;20026;-75
2022/02/01 04:42:47;;;;;;;4.00;1.40;;;;;;;19.21;46.60;102154.81;5013510;28;20037;-75
2022/02/01 04:45:18;;;;;;;5.85;1.52;;;;;;;19.38;46.03;102151.91;5013399;28;20026;-75
2022/02/01 04:47:45;;;;;;;5.55;1.77;;;;;;;19.09;46.78;102155.53;5013493;28;20381;-75
2022/02/01 04:50:14;;;;;;;6.38;1.20;;;;;;;19.03;47.16;102162.41;5013342;28;20030;-75
2022/02/01 04:52:41;;;;;;;5.45;1.58;;;;;;;19.09;47.04;102172.16;5013335;28;20038;-75
2022/02/01 04:55:07;;;;;;;10.50;2.15;;;;;;;19.16;46.83;102157.78;5013574;28;20033;-75
2022/02/01 04:57:35;;;;;;;6.25;1.40;;;;;;;19.10;46.98;102159.91;5013231;28;20038;-75
2022/02/01 05:00:00;;;;;;;3.67;1.63;;;;;;;18.88;47.74;102165.75;5013228;28;20022;-75
2022/02/01 05:02:26;;;;;;;2.75;1.15;;;;;;;19.52;45.78;102174.59;5013433;28;20357;-75
2022/02/01 05:04:51;;;;;;;4.13;1.65;;;;;;;19.13;46.91;102170.34;5013373;28;20369;-75
2022/02/01 05:07:21;;;;;;;4.72;0.98;;;;;;;19.08;46.87;102159.44;5013091;28;20610;-75
2022/02/01 05:09:47;;;;;;;;;;;;;;;18.42;48.89;102175.72;5013850;28;20018;-75
2022/02/01 05:12:14;;;;;;;7.72;1.27;;;;;;;19.10;47.15;102173.78;5012857;28;19924;-75
2022/02/01 05:14:40;;;;;;;6.50;1.45;;;;;;;19.04;47.30;102170.41;5013014;28;20030;-75
2022/02/01 05:17:06;;;;;;;7.10;1.38;;;;;;;19.00;47.43;102174.97;5012956;28;20033;-75
2022/02/01 05:22:12;;;;;;;6.65;1.77;;;;;;;19.24;46.90;102170.75;5012622;28;20030;-75
2022/02/01 05:24:39;;;;;;;3.90;0.77;;;;;;;18.92;48.04;102170.31;5013149;28;20044;-73
2022/02/01 05:27:08;;;;;;;3.40;1.00;;;;;;;19.02;47.85;102177.41;5013018;28;20022;-73
2022/02/01 05:29:35;;;;;;;4.97;1.13;;;;;;;19.21;47.34;102179.75;5012594;28;20042;-73
2022/02/01 05:32:08;;;;;;;3.28;0.77;;;;;;;18.83;48.29;102164.81;5012771;28;20045;-73
2022/02/01 05:34:34;;;;;;;4.47;1.48;;;;;;;19.09;47.79;102172.97;5011522;28;20040;-75
2022/02/01 05:37:00;;;;;;;2.67;0.63;;;;;;;19.41;46.95;102170.59;5013018;28;20025;-75
2022/02/01 05:39:27;;;;;;;1.00;0.60;;;;;;;19.40;47.02;102178.13;5012720;28;20380;-75
2022/02/01 05:41:55;;;;;;;3.38;0.90;;;;;;;19.11;47.91;102169.84;5011446;28;20412;-75
2022/02/01 05:44:20;;;;;;;2.63;0.80;;;;;;;19.22;47.66;102164.75;5012619;28;20026;-75
2022/02/01 05:46:46;;;;;;;2.28;0.95;;;;;;;19.29;47.63;102167.78;5012550;28;20022;-75
2022/02/01 05:49:12;;;;;;;1.83;0.60;;;;;;;19.53;46.93;102175.41;5012955;28;20054;-75
2022/02/01 05:51:38;;;;;;;2.13;0.65;;;;;;;19.02;48.40;102164.38;5012484;28;20034;-76
2022/02/01 05:54:04;;;;;;;2.95;0.98;;;;;;;19.38;47.30;102174.88;5012524;28;20408;-75
2022/02/01 05:56:31;;;;;;;0.90;0.65;;;;;;;19.04;48.48;102169.56;5012553;28;20022;-76
2022/02/01 05:58:57;;;;;;;2.45;0.80;;;;;;;19.02;48.34;102182.94;5012460;28;20030;-75
2022/02/01 06:01:22;;;;;;;2.72;0.75;;;;;;;18.98;48.64;102173.72;5008397;28;20534;-75
2022/02/01 06:03:48;;;;;;;1.23;0.60;;;;;;;19.41;47.43;102179.72;5012390;28;20033;-75
2022/02/01 06:06:14;;;;;;;5.00;1.40;;;;;;;19.67;46.63;102171.25;5012723;28;20105;-75
2022/02/01 06:08:40;;;;;;;2.83;0.70;;;;;;;19.59;47.09;102158.28;5012374;28;20145;-75
2022/02/01 06:11:06;;;;;;;1.25;0.70;;;;;;;19.83;46.26;102179.72;5012380;28;20086;-75
2022/02/01 06:13:36;;;;;;;3.75;1.08;;;;;;;19.35;47.60;102150.63;5012312;28;20030;-75
2022/02/01 06:16:05;;;;;;;1.67;0.45;;;;;;;18.82;49.26;102163.22;5012377;28;20030;-75
2022/02/01 06:18:31;;;;;;;4.07;0.77;;;;;;;18.76;49.44;102178.38;5012276;28;20105;-75
2022/02/01 06:20:56;;;;;;;4.68;1.10;;;;;;;19.27;48.19;102170.06;5012349;28;20109;-75
2022/02/01 06:23:22;;;;;;;3.70;0.90;;;;;;;19.41;47.66;102182.50;5012363;28;20061;-75
2022/02/01 06:25:51;;;;;;;2.38;0.98;;;;;;;19.33;47.92;102177.84;5012325;28;20034;-75
2022/02/01 06:28:28;;;;;;;3.28;0.60;;;;;;;19.29;48.21;102165.81;5012143;28;20053;-76
2022/02/01 06:30:55;;;;;;;3.10;0.90;;;;;;;19.43;47.67;102181.38;5012416;28;20476;-75
2022/02/01 06:33:21;;;;;;;2.15;0.60;;;;;;;18.70;49.61;102176.13;5014184;28;20433;-75
2022/02/01 06:35:47;;;;;;;1.95;0.70;;;;;;;19.42;47.83;102180.53;5015952;28;20384;-75
2022/02/01 06:38:14;;;;;;;3.83;0.70;;;;;;;19.35;47.91;102183.88;5015879;28;20025;-76
2022/02/01 06:40:46;;;;;;;2.92;0.65;;;;;;;18.90;48.97;102174.56;5015791;28;20083;-75
2022/02/01 06:43:13;;;;;;;2.40;0.73;;;;;;;19.56;47.45;102189.38;5015850;28;20514;-76
2022/02/01 06:45:40;;;;;;;3.90;1.10;;;;;;;19.62;47.17;102190.84;5015683;28;20037;-75
2022/02/01 06:48:06;;;;;;;3.83;0.77;;;;;;;19.39;47.95;102190.34;5015942;28;20119;-75
2022/02/01 06:50:33;;;;;;;1.40;0.52;;;;;;;19.52;47.42;102173.78;5015511;28;20057;-76
2022/02/01 06:52:59;;;;;;;3.03;0.95;;;;;;;19.33;48.06;102191.69;5015692;28;20123;-75
2022/02/01 06:55:45;;;;;;;1.10;0.55;;;;;;;19.20;48.43;102194.75;5015551;28;20085;-75
2022/02/01 06:58:12;;;;;;;1.48;0.60;;;;;;;19.22;48.20;102198.81;5015788;28;20030;-75
2022/02/01 07:00:39;;;;;;;1.83;0.68;;;;;;;19.23;48.34;102200.41;5015645;28;20037;-75
2022/02/01 07:03:04;;;;;;;0.75;0.40;;;;;;;19.53;47.48;102190.09;5015117;28;20022;-75
2022/02/01 07:05:30;;;;;;;0.65;0.30;;;;;;;19.41;47.79;102196.34;5015375;28;20030;-75
2022/02/01 07:07:55;;;;;;;3.67;0.68;;;;;;;19.38;48.03;102196.25;5015325;28;20449;-75
2022/02/01 07:10:21;;;;;;;2.22;0.82;;;;;;;19.23;48.43;102185.75;5015564;28;20365;-75
2022/02/01 07:12:46;;;;;;;2.13;0.50;;;;;;;19.26;48.11;102187.84;5015005;28;20380;-75
2022/02/01 07:15:12;;;;;;;2.65;0.60;;;;;;;19.48;47.62;102197.78;5015168;28;20270;-76
2022/02/01 07:17:48;;;;;;;0.98;0.40;;;;;;;19.66;47.21;102191.00;5015137;28;20480;-76
2022/02/01 07:20:15;;;;;;;0.60;0.47;;;;;;;18.85;49.31;102200.50;5014957;28;20029;-75
2022/02/01 07:22:42;;;;;;;1.17;0.40;;;;;;;19.50;47.67;102206.59;5015096;28;20034;-75
2022/02/01 07:25:15;;;;;;;1.40;0.50;;;;;;;19.71;47.17;102201.84;5014988;28;20035;-75
2022/02/01 07:27:47;;;;;;;1.95;0.63;;;;;;;19.80;46.72;102197.06;5014105;28;20028;-79
2022/02/01 07:30:16;;;;;;;3.47;0.50;;;;;;;19.59;47.57;102210.13;5014214;28;20081;-76
2022/02/01 07:32:42;;;;;;;1.48;0.50;;;;;;;19.49;47.67;102194.66;5014463;28;20044;-75
2022/02/01 07:35:08;;;;;;;1.70;0.57;;;;;;;19.82;46.80;102199.50;5014779;28;20063;-75
2022/02/01 07:37:35;;;;;;;1.95;0.90;;;;;;;19.72;47.03;102197.94;5014754;28;20033;-75
2022/02/01 07:40:02;;;;;;;1.25;0.38;;;;;;;19.73;47.07;102201.53;5014797;28;20034;-75
2022/02/01 07:42:28;;;;;;;0.60;0.43;;;;;;;19.53;47.54;102186.50;5013458;28;20487;-75
2022/02/01 07:44:58;;;;;;;0.45;0.30;;;;;;;19.77;46.69;102203.28;5014294;28;20026;-75
2022/02/01 07:47:24;;;;;;;1.10;0.40;;;;;;;19.28;48.15;102188.34;5014839;28;20022;-74
2022/02/01 07:49:50;;;;;;;0.90;0.55;;;;;;;19.79;46.77;102192.66;5014766;28;20029;-75
2022/02/01 07:52:16;;;;;;;1.30;0.40;;;;;;;19.54;47.51;102190.88;5014357;28;20029;-75
2022/02/01 07:54:43;;;;;;;2.95;1.13;;;;;;;19.68;46.99;102197.00;5014294;28;20025;-75
2022/02/01 07:57:09;;;;;;;2.05;0.40;;;;;;;19.96;46.40;102188.91;5014357;28;20499;-80
2022/02/01 07:59:34;;;;;;;2.70;0.40;;;;;;;19.67;47.16;102193.41;5014284;28;20030;-75
2022/02/01 08:02:01;;;;;;;4.03;0.60;;;;;;;19.82;46.81;102205.84;5014322;28;20022;-77
2022/02/01 08:04:32;;;;;;;0.50;0.50;;;;;;;19.94;46.43;102211.44;5014371;28;20018;-75
2022/02/01 08:06:58;;;;;;;3.13;0.52;;;;;;;19.84;46.65;102202.72;5012773;28;20679;-68
2022/02/01 08:09:30;;;;;;;1.05;0.50;;;;;;;19.66;47.43;102208.44;5014186;28;20029;-69
2022/02/01 08:11:56;;;;;;;1.20;0.65;;;;;;;19.91;46.67;102206.56;5013996;28;20029;-68
2022/02/01 08:17:43;;;;;;;1.58;0.60;;;;;;;19.66;47.31;102202.91;4998139;28;20038;-68
2022/02/01 08:20:07;;;;;;;1.42;0.60;;;;;;;19.58;47.58;102201.00;5013513;28;20046;-84
2022/02/01 08:25:11;;;;;;;0.75;0.70;;;;;;;19.45;47.78;102218.69;5013864;28;20039;-67
2022/02/01 08:27:38;;;;;;;2.60;0.55;;;;;;;19.76;46.94;102218.28;5014015;28;20105;-67
2022/02/01 08:30:06;;;;;;;3.85;0.60;;;;;;;20.15;45.90;102222.50;5013545;28;20050;-68
2022/02/01 08:32:31;;;;;;;1.25;0.47;;;;;;;20.21;45.64;102232.22;5013750;28;20026;-68
2022/02/01 08:34:57;;;;;;;2.17;0.50;;;;;;;20.16;45.82;102223.28;5013382;28;20037;-68
2022/02/01 08:37:23;;;;;;;0.88;0.50;;;;;;;20.17;45.94;102230.47;5013902;28;20025;-84
2022/02/01 08:39:49;;;;;;;2.55;0.70;;;;;;;20.20;45.70;102227.81;5013139;28;20105;-68
2022/02/01 08:42:15;;;;;;;1.85;0.50;;;;;;;20.15;45.79;102228.03;5011547;28;20112;-69
2022/02/01 08:44:43;;;;;;;0.77;0.40;;;;;;;19.94;46.38;102225.28;5013626;28;20428;-68
2022/02/01 08:47:08;;;;;;;2.28;0.50;;;;;;;20.00;46.27;102228.69;5013473;28;20025;-67
2022/02/01 08:49:34;;;;;;;0.43;0.40;;;;;;;20.03;46.10;102230.78;5013309;28;20030;-68
2022/02/01 08:52:04;;;;;;;1.35;0.40;;;;;;;20.07;45.99;102237.25;5013284;28;20033;-67
2022/02/01 08:54:31;;;;;;;0.65;0.60;;;;;;;20.41;45.18;102229.75;5013646;28;20484;-67
2022/02/01 08:59:41;;;;;;;0.80;0.70;;;;;;;20.17;45.79;102233.25;5011601;28;20033;-67
2022/02/01 09:02:08;;;;;;;2.25;0.35;;;;;;;20.14;45.69;102236.72;5012546;28;20034;-68
2022/02/01 09:04:34;;;;;;;0.57;0.50;;;;;;;20.22;45.66;102241.34;5012496;28;20022;-68
2022/02/01 09:07:02;;;;;;;0.80;0.47;;;;;;;19.89;46.38;102233.03;5012546;28;20037;-68
2022/02/01 09:09:29;;;;;;;1.30;0.40;;;;;;;20.15;45.94;102241.91;5012786;28;20029;-68
2022/02/01 09:11:55;;;;;;;0.93;0.50;;;;;;;20.39;45.16;102240.34;5012646;28;20026;-68
2022/02/01 09:14:21;;;;;;;0.40;0.40;;;;;;;20.38;45.20;102239.53;5013253;28;20030;-68
2022/02/01 09:16:47;;;;;;;0.22;0.20;;;;;;;20.16;45.54;102248.28;5011730;28;20548;-68
2022/02/01 09:19:14;;;;;;;0.47;0.30;;;;;;;20.25;45.32;102257.31;5013297;28;20405;-67
2022/02/01 09:21:40;;;;;;;0.22;0.20;;;;;;;20.38;45.11;102256.19;5015011;28;20044;-82
2022/02/01 09:24:07;;;;;;;0.82;0.40;;;;;;;20.28;45.16;102264.97;5023026;28;20122;-67
2022/02/01 09:26:33;;;;;;;0.98;0.60;;;;;;;20.31;45.32;102264.28;5021679;28;20018;-68
2022/02/01 09:28:59;;;;;;;0.80;0.32;;;;;;;19.94;45.87;102261.34;5012367;28;20038;-68
2022/02/01 09:31:25;;;;;;;1.95;0.40;;;;;;;20.13;45.77;102248.97;5019825;28;20036;-70
2022/02/01 09:33:51;;;;;;;0.85;0.45;;;;;;;20.45;44.91;102250.94;5021816;28;20018;-77
2022/02/01 09:36:17;;;;;;;0.68;0.32;;;;;;;20.47;44.79;102245.84;5017148;28;20052;-75
2022/02/01 09:38:43;;;;;;;0.43;0.40;;;;;;;20.59;44.57;102239.50;5012815;28;20026;-84
2022/02/01 09:41:09;;;;;;;2.20;0.22;;;;;;;20.31;45.24;102242.06;5012332;28;20036;-68
2022/02/01 09:43:35;;;;;;;0.63;0.30;;;;;;;20.62;44.62;102232.44;5012742;28;20096;-75
2022/02/01 09:46:01;;;;;;;1.92;0.50;;;;;;;20.54;44.73;102241.69;5012679;28;20022;-67
2022/02/01 09:48:28;;;;;;;0.30;0.30;;;;;;;20.44;44.99;102237.41;5011126;28;20018;-78
2022/02/01 09:50:53;;;;;;;0.52;0.32;;;;;;;20.39;45.14;102232.03;5011784;28;20407;-69
2022/02/01 09:53:20;;;;;;;1.17;0.52;;;;;;;20.29;45.36;102233.28;5011189;28;20077;-67
2022/02/01 09:55:47;;;;;;;0.63;0.50;;;;;;;20.46;44.97;102223.97;5011235;28;20055;-69
2022/02/01 09:58:14;;;;;;;1.58;0.70;;;;;;;20.76;44.32;102235.69;5008801;28;20112;-69
2022/02/01 10:00:45;;;;;;;1.35;0.63;;;;;;;20.21;45.73;102228.63;5011214;28;20021;-83
2022/02/01 10:03:16;;;;;;;1.17;0.40;;;;;;;20.30;45.33;102236.88;5010015;28;20448;-67
2022/02/01 10:05:43;;;;;;;0.73;0.52;;;;;;;20.18;45.82;102229.34;5011429;28;20054;-67
2022/02/01 10:08:09;;;;;;;1.48;0.50;;;;;;;20.17;45.81;102227.69;5012940;28;20056;-67
2022/02/01 10:10:34;;;;;;;1.85;0.57;;;;;;;20.30;45.65;102248.78;5015134;28;20061;-69
2022/02/01 10:13:14;;;;;;;2.35;0.55;;;;;;;20.39;45.35;102235.59;5014850;28;20064;-67
2022/02/01 10:18:32;;;;;;;;;;;;;;;20.34;45.48;102244.19;5015129;28;20037;-68
2022/02/01 10:21:09;;;;;;;1.20;0.70;;;;;;;20.08;45.91;102225.00;5014255;28;20000;-68
2022/02/01 10:23:38;;;;;;;1.05;0.30;;;;;;;20.50;44.91;102244.34;5014196;28;20033;-67
2022/02/01 10:26:05;;;;;;;0.68;0.30;;;;;;;20.61;44.76;102242.75;5013887;28;20755;-67
2022/02/01 10:31:27;;;;;;;0.43;0.38;;;;;;;20.67;44.65;102237.78;5013042;28;20036;-68
2022/02/01 10:34:25;;;;;;;1.25;0.45;;;;;;;20.38;45.04;102230.41;5014966;28;20022;-69
2022/02/01 10:36:50;;;;;;;1.08;0.68;;;;;;;20.74;44.25;102229.69;5014231;28;20124;-68
2022/02/01 10:39:36;;;;;;;0.30;0.20;;;;;;;20.19;45.59;102236.50;5014889;28;20496;-67
2022/02/01 10:42:09;;;;;;;0.80;0.20;;;;;;;20.36;45.08;102225.19;5012801;28;20034;-67
2022/02/01 10:44:46;;;;;;;1.65;0.45;;;;;;;20.53;44.81;102238.09;5014704;28;20058;-78
2022/02/01 10:47:14;;;;;;;1.20;0.57;;;;;;;20.55;44.81;102233.00;5014791;28;20028;-81
2022/02/01 10:49:40;;;;;;;3.17;2.45;;;;;;;20.80;44.37;102236.63;5014618;28;20030;-67
2022/02/01 10:52:14;;;;;;;0.95;0.88;;;;;;;20.58;44.72;102237.09;5014601;28;20108;-68
2022/02/01 10:54:42;;;;;;;2.65;1.15;;;;;;;20.82;44.42;102227.94;5012519;28;20034;-67
2022/02/01 10:57:10;;;;;;;1.88;1.38;;;;;;;20.98;44.04;102237.22;5014601;28;20088;-68
2022/02/01 10:59:37;;;;;;;1.13;0.50;;;;;;;20.90;44.24;102230.59;5011590;28;20053;-72
2022/02/01 11:02:04;;;;;;;0.63;0.63;;;;;;;21.14;43.65;102215.88;5013317;28;20038;-67
2022/02/01 11:04:35;;;;;;;0.47;0.47;;;;;;;21.02;44.02;102216.72;5013417;28;20088;-67
2022/02/01 11:07:01;;;;;;;0.50;0.50;;;;;;;21.08;43.56;102224.81;5011475;28;20022;-81
2022/02/01 11:09:31;;;;;;;0.50;0.50;;;;;;;20.94;44.23;102212.09;5014271;28;20100;-67
2022/02/01 11:12:11;;;;;;;0.30;0.30;;;;;;;20.33;45.50;102206.47;5012084;28;20113;-67
2022/02/01 11:14:47;;;;;;;1.30;1.20;;;;;;;20.73;44.64;102201.09;5011214;28;20075;-83
2022/02/01 11:17:15;;;;;;;1.98;0.60;;;;;;;20.71;44.83;102213.72;5014093;28;20056;-67
2022/02/01 11:19:59;;;;;;;3.05;2.30;;;;;;;21.01;43.93;102223.44;5012342;28;20065;-81
2022/02/01 11:22:31;;;;;;;0.70;0.40;;;;;;;20.60;44.90;102209.75;5013239;28;20026;-75
2022/02/01 11:25:00;;;;;;;2.00;0.60;;;;;;;20.95;44.06;102219.28;5012016;28;20034;-70
2022/02/01 11:30:49;;;;;;;1.55;1.30;;;;;;;21.28;43.31;102232.22;5010047;28;20050;-69
2022/02/01 11:33:14;;;;;;;1.30;0.70;;;;;;;21.40;43.25;102240.56;5012717;28;20116;-68
2022/02/01 11:35:40;;;;;;;2.50;0.77;;;;;;;21.52;42.96;102232.16;5012799;28;20109;-68
2022/02/01 11:38:17;;;;;;;0.50;0.30;;;;;;;21.37;43.22;102235.69;5013008;28;20025;-67
2022/02/01 11:40:46;;;;;;;0.82;0.40;;;;;;;21.44;42.90;102222.00;5011979;28;20038;-68
2022/02/01 11:43:13;;;;;;;0.47;0.40;;;;;;;21.59;42.80;102237.13;5012213;28;20075;-67
2022/02/01 11:45:43;;;;;;;0.40;0.22;;;;;;;21.14;43.35;102248.44;5012928;28;20076;-68
2022/02/01 11:48:39;;;;;;;1.08;0.63;;;;;;;21.26;43.09;102240.09;5011244;28;20022;-68
2022/02/01 11:51:09;;;;;;;0.32;0.30;;;;;;;21.54;42.66;102238.22;5011717;28;20038;-67
2022/02/01 11:53:35;;;;;;;0.43;0.35;;;;;;;21.83;41.89;102247.38;5012418;28;20226;-68
2022/02/01 11:56:03;;;;;;;1.75;0.50;;;;;;;22.06;41.45;102245.66;5012810;28;20041;-67
2022/02/01 11:58:37;;;;;;;4.47;0.57;;;;;;;21.90;41.72;102253.16;5012690;28;20093;-68
2022/02/01 12:01:07;;;;;;;0.55;0.40;;;;;;;22.06;41.29;102245.66;5011582;28;20028;-68
2022/02/01 12:03:39;;;;;;;1.67;0.43;;;;;;;21.89;41.39;102232.06;5013272;28;20056;-69
2022/02/01 12:06:10;;;;;;;3.70;0.77;;;;;;;21.55;41.96;102237.03;5013026;28;20022;-68
2022/02/01 12:08:42;;;;;;;2.20;0.75;;;;;;;21.42;42.17;102227.09;5013215;28;20026;-65
2022/02/01 12:11:08;;;;;;;3.83;0.80;;;;;;;21.88;41.41;102217.34;5013121;28;20467;-66
2022/02/01 12:13:35;;;;;;;1.92;0.50;;;;;;;21.82;41.27;102229.06;5013125;28;20029;-69
2022/02/01 12:16:05;;;;;;;7.97;1.23;;;;;;;21.66;41.24;102231.78;5013206;28;20034;-75
2022/02/01 12:18:42;;;;;;;2.42;0.95;;;;;;;21.97;41.21;102221.94;5013138;28;20108;-69
2022/02/01 12:21:28;;;;;;;1.77;0.73;;;;;;;21.53;42.02;102216.28;5011897;28;20025;-68
2022/02/01 12:23:58;;;;;;;0.52;0.32;;;;;;;21.18;42.76;102204.91;5012591;28;20105;-67
2022/02/01 12:26:29;;;;;;;4.22;1.30;;;;;;;20.96;43.24;102220.09;5012915;28;20499;-76
2022/02/01 12:28:57;;;;;;;2.15;0.95;;;;;;;21.24;42.64;102209.06;5013419;28;20057;-74
2022/02/01 12:31:26;;;;;;;5.32;1.45;;;;;;;20.97;43.50;102191.94;5013881;28;20116;-68
2022/02/01 12:33:55;;;;;;;5.57;1.13;;;;;;;21.33;42.52;102196.66;5013555;28;20034;-69
2022/02/01 12:36:28;;;;;;;7.72;2.40;;;;;;;21.33;42.89;102184.75;5013662;28;20037;-68
2022/02/01 12:39:03;;;;;;;1.63;0.52;;;;;;;21.19;42.93;102190.63;5013566;28;20025;-69
2022/02/01 12:41:33;;;;;;;1.48;0.80;;;;;;;21.24;42.71;102184.03;5013889;28;20057;-69
2022/02/01 12:48:58;;;;;;;0.43;0.40;;;;;;;21.47;42.14;102176.00;5012573;28;20022;-70
2022/02/01 12:51:23;;;;;;;3.95;0.85;;;;;;;21.48;42.13;102160.94;5012189;28;20464;-69
2022/02/01 12:53:50;;;;;;;1.13;0.68;;;;;;;21.51;42.08;102174.94;5012601;28;20061;-69
2022/02/01 12:56:20;;;;;;;3.30;0.57;;;;;;;21.21;42.25;102166.06;5012180;28;20026;-69
2022/02/01 12:58:57;;;;;;;3.88;0.57;;;;;;;20.95;42.52;102158.16;5009690;28;20101;-69
2022/02/01 13:01:29;;;;;;;3.17;0.50;;;;;;;20.93;42.67;102148.53;5012293;28;20096;-69
2022/02/01 13:03:54;;;;;;;1.05;0.45;;;;;;;21.45;41.73;102158.84;5012179;28;20017;-69
2022/02/01 13:06:20;;;;;;;1.65;0.70;;;;;;;21.41;41.97;102167.09;5012265;28;20038;-69
2022/02/01 13:14:38;;;;;;;6.25;0.82;;;;;;;21.56;41.30;102183.03;5009905;28;20084;-70